sensor_id;sensor_type;location;lat;lon;timestamp;pressure;altitude;pressure_sealevel;temperature;humidity
29733;BME280;16643;43.158;25.302;2023-07-13T00:01:46;98016.31;;;27.93;59.19
29733;BME280;16643;43.158;25.302;2023-07-13T00:04:15;98017.00;;;27.95;58.87
29733;BME280;16643;43.158;25.302;2023-07-13T00:06:41;97980.56;;;27.68;58.83
29733;BME280;16643;43.158;25.302;2023-07-13T00:09:11;97983.25;;;27.68;58.75
29733;BME280;16643;43.158;25.302;2023-07-13T00:11:39;98017.31;;;27.92;58.00
29733;BME280;16643;43.158;25.302;2023-07-13T00:14:05;97937.81;;;27.42;58.24
29733;BME280;16643;43.158;25.302;2023-07-13T00:16:31;98014.13;;;27.89;57.92
29733;BME280;16643;43.158;25.302;2023-07-13T00:18:56;97945.19;;;27.48;57.97
29733;BME280;16643;43.158;25.302;2023-07-13T00:21:22;98011.97;;;27.92;57.90
29733;BME280;16643;43.158;25.302;2023-07-13T00:23:48;98015.78;;;27.90;57.61
29733;BME280;16643;43.158;25.302;2023-07-13T00:26:14;98000.56;;;27.82;57.72
29733;BME280;16643;43.158;25.302;2023-07-13T00:28:40;97970.88;;;27.67;57.47
29733;BME280;16643;43.158;25.302;2023-07-13T00:31:08;97976.91;;;27.69;57.86
29733;BME280;16643;43.158;25.302;2023-07-13T00:33:33;97977.75;;;27.70;57.53
29733;BME280;16643;43.158;25.302;2023-07-13T00:35:59;97946.19;;;27.47;57.53
29733;BME280;16643;43.158;25.302;2023-07-13T00:38:24;97995.66;;;27.77;57.75
29733;BME280;16643;43.158;25.302;2023-07-13T00:40:50;97985.91;;;27.68;57.60
29733;BME280;16643;43.158;25.302;2023-07-13T00:43:19;97963.56;;;27.52;57.30
29733;BME280;16643;43.158;25.302;2023-07-13T00:48:12;97996.16;;;27.73;57.59
29733;BME280;16643;43.158;25.302;2023-07-13T00:50:40;98000.34;;;27.75;57.69
29733;BME280;16643;43.158;25.302;2023-07-13T00:53:07;97994.94;;;27.67;57.85
29733;BME280;16643;43.158;25.302;2023-07-13T00:55:33;97981.53;;;27.59;57.32
29733;BME280;16643;43.158;25.302;2023-07-13T00:57:59;97995.78;;;27.68;57.68
29733;BME280;16643;43.158;25.302;2023-07-13T01:00:26;97996.16;;;27.73;57.96
29733;BME280;16643;43.158;25.302;2023-07-13T01:02:53;97973.94;;;27.55;57.64
29733;BME280;16643;43.158;25.302;2023-07-13T01:05:21;97993.75;;;27.62;58.79
29733;BME280;16643;43.158;25.302;2023-07-13T01:07:50;97989.38;;;27.61;58.87
29733;BME280;16643;43.158;25.302;2023-07-13T01:10:19;97956.91;;;27.30;59.42
29733;BME280;16643;43.158;25.302;2023-07-13T01:12:46;97971.47;;;27.35;60.28
29733;BME280;16643;43.158;25.302;2023-07-13T01:15:35;97982.44;;;27.32;59.78
29733;BME280;16643;43.158;25.302;2023-07-13T01:18:03;97976.59;;;27.11;60.68
29733;BME280;16643;43.158;25.302;2023-07-13T01:20:29;97949.06;;;26.93;60.38
29733;BME280;16643;43.158;25.302;2023-07-13T01:22:54;97988.59;;;27.07;60.11
29733;BME280;16643;43.158;25.302;2023-07-13T01:25:20;97973.13;;;26.83;60.94
29733;BME280;16643;43.158;25.302;2023-07-13T01:27:46;97964.38;;;26.73;61.22
29733;BME280;16643;43.158;25.302;2023-07-13T01:30:12;97970.06;;;26.78;60.37
29733;BME280;16643;43.158;25.302;2023-07-13T01:32:38;97977.63;;;26.83;61.67
29733;BME280;16643;43.158;25.302;2023-07-13T01:35:07;97901.63;;;26.24;60.46
29733;BME280;16643;43.158;25.302;2023-07-13T01:37:33;97981.66;;;26.69;62.28
29733;BME280;16643;43.158;25.302;2023-07-13T01:40:03;97981.25;;;26.64;60.60
29733;BME280;16643;43.158;25.302;2023-07-13T01:42:29;97967.97;;;26.54;61.05
29733;BME280;16643;43.158;25.302;2023-07-13T01:44:55;97976.13;;;26.53;61.53
29733;BME280;16643;43.158;25.302;2023-07-13T01:47:22;97950.88;;;26.29;61.99
29733;BME280;16643;43.158;25.302;2023-07-13T01:49:49;97945.13;;;26.24;63.49
29733;BME280;16643;43.158;25.302;2023-07-13T01:52:16;97948.22;;;26.20;62.60
29733;BME280;16643;43.158;25.302;2023-07-13T01:54:41;97946.44;;;26.11;63.29
29733;BME280;16643;43.158;25.302;2023-07-13T01:57:07;97954.34;;;26.02;64.91
29733;BME280;16643;43.158;25.302;2023-07-13T01:59:33;97957.16;;;26.01;60.99
29733;BME280;16643;43.158;25.302;2023-07-13T02:01:58;97987.78;;;26.24;64.22
29733;BME280;16643;43.158;25.302;2023-07-13T02:04:24;97967.19;;;26.17;65.08
29733;BME280;16643;43.158;25.302;2023-07-13T02:06:50;97962.88;;;26.06;66.60
29733;BME280;16643;43.158;25.302;2023-07-13T02:09:16;97966.78;;;26.12;67.05
29733;BME280;16643;43.158;25.302;2023-07-13T02:11:41;97960.09;;;25.98;63.20
29733;BME280;16643;43.158;25.302;2023-07-13T02:14:07;97976.75;;;26.10;65.83
29733;BME280;16643;43.158;25.302;2023-07-13T02:16:32;97976.50;;;26.03;65.75
29733;BME280;16643;43.158;25.302;2023-07-13T02:18:58;97972.44;;;25.99;66.15
29733;BME280;16643;43.158;25.302;2023-07-13T02:21:23;97983.56;;;25.94;67.46
29733;BME280;16643;43.158;25.302;2023-07-13T02:23:49;97983.00;;;25.91;62.49
29733;BME280;16643;43.158;25.302;2023-07-13T02:26:15;97989.53;;;26.06;66.43
29733;BME280;16643;43.158;25.302;2023-07-13T02:28:41;97987.19;;;25.93;65.98
29733;BME280;16643;43.158;25.302;2023-07-13T02:31:10;97998.56;;;25.95;65.22
29733;BME280;16643;43.158;25.302;2023-07-13T02:33:36;97961.06;;;25.70;65.12
29733;BME280;16643;43.158;25.302;2023-07-13T02:36:02;97974.63;;;25.76;65.19
29733;BME280;16643;43.158;25.302;2023-07-13T02:38:28;97953.47;;;25.55;65.95
29733;BME280;16643;43.158;25.302;2023-07-13T02:40:53;97972.25;;;25.54;67.25
29733;BME280;16643;43.158;25.302;2023-07-13T02:43:19;97998.59;;;25.57;66.90
29733;BME280;16643;43.158;25.302;2023-07-13T02:45:45;97997.78;;;25.56;65.64
29733;BME280;16643;43.158;25.302;2023-07-13T02:48:13;97996.50;;;25.51;66.44
29733;BME280;16643;43.158;25.302;2023-07-13T02:50:39;97984.63;;;25.45;68.28
29733;BME280;16643;43.158;25.302;2023-07-13T02:53:05;97976.91;;;25.42;66.54
29733;BME280;16643;43.158;25.302;2023-07-13T02:55:31;98003.56;;;25.61;63.89
29733;BME280;16643;43.158;25.302;2023-07-13T02:57:56;97951.56;;;25.28;66.01
29733;BME280;16643;43.158;25.302;2023-07-13T03:00:23;98001.13;;;25.58;65.77
29733;BME280;16643;43.158;25.302;2023-07-13T03:02:49;97942.47;;;25.21;67.24
29733;BME280;16643;43.158;25.302;2023-07-13T03:05:16;97970.88;;;25.40;67.36
29733;BME280;16643;43.158;25.302;2023-07-13T03:07:42;98001.00;;;25.60;65.60
29733;BME280;16643;43.158;25.302;2023-07-13T03:10:09;98001.56;;;25.54;67.47
29733;BME280;16643;43.158;25.302;2023-07-13T03:12:35;97916.03;;;25.01;66.48
29733;BME280;16643;43.158;25.302;2023-07-13T03:15:01;97956.88;;;25.19;63.85
29733;BME280;16643;43.158;25.302;2023-07-13T03:17:27;97973.56;;;25.30;65.03
29733;BME280;16643;43.158;25.302;2023-07-13T03:19:52;97976.91;;;25.42;65.03
29733;BME280;16643;43.158;25.302;2023-07-13T03:22:18;97965.41;;;25.42;67.47
29733;BME280;16643;43.158;25.302;2023-07-13T03:24:45;97991.47;;;25.48;67.52
29733;BME280;16643;43.158;25.302;2023-07-13T03:27:10;97982.63;;;25.57;68.26
29733;BME280;16643;43.158;25.302;2023-07-13T03:29:36;97986.28;;;25.46;68.64
29733;BME280;16643;43.158;25.302;2023-07-13T03:32:02;97963.34;;;25.36;64.86
29733;BME280;16643;43.158;25.302;2023-07-13T03:34:29;97998.91;;;25.63;67.19
29733;BME280;16643;43.158;25.302;2023-07-13T03:36:55;98005.91;;;25.64;68.23
29733;BME280;16643;43.158;25.302;2023-07-13T03:39:21;97988.56;;;25.60;69.79
29733;BME280;16643;43.158;25.302;2023-07-13T03:41:47;97968.75;;;25.53;67.58
29733;BME280;16643;43.158;25.302;2023-07-13T03:44:15;97983.63;;;25.65;68.00
29733;BME280;16643;43.158;25.302;2023-07-13T03:46:41;97983.72;;;25.74;70.06
29733;BME280;16643;43.158;25.302;2023-07-13T03:49:08;97998.16;;;25.81;71.79
29733;BME280;16643;43.158;25.302;2023-07-13T03:51:34;97993.41;;;25.84;62.57
29733;BME280;16643;43.158;25.302;2023-07-13T03:54:00;97997.38;;;26.08;65.73
29733;BME280;16643;43.158;25.302;2023-07-13T03:56:27;98004.38;;;26.18;69.92
29733;BME280;16643;43.158;25.302;2023-07-13T03:58:53;97971.22;;;25.93;66.89
29733;BME280;16643;43.158;25.302;2023-07-13T04:01:21;97974.41;;;25.97;68.36
29733;BME280;16643;43.158;25.302;2023-07-13T04:03:47;97949.81;;;25.76;67.28
29733;BME280;16643;43.158;25.302;2023-07-13T04:06:25;98005.19;;;26.28;71.91
29733;BME280;16643;43.158;25.302;2023-07-13T04:08:54;98006.41;;;26.34;66.23
29733;BME280;16643;43.158;25.302;2023-07-13T04:11:22;98002.72;;;26.45;71.94
29733;BME280;16643;43.158;25.302;2023-07-13T04:13:48;98008.41;;;26.59;67.04
29733;BME280;16643;43.158;25.302;2023-07-13T04:16:15;98004.91;;;26.76;63.19
29733;BME280;16643;43.158;25.302;2023-07-13T04:18:41;97990.94;;;26.92;63.58
29733;BME280;16643;43.158;25.302;2023-07-13T04:21:07;97986.28;;;26.94;64.61
29733;BME280;16643;43.158;25.302;2023-07-13T04:23:34;98012.75;;;27.23;66.22
29733;BME280;16643;43.158;25.302;2023-07-13T04:26:00;98003.53;;;27.18;66.57
29733;BME280;16643;43.158;25.302;2023-07-13T04:28:26;97999.88;;;27.19;66.86
29733;BME280;16643;43.158;25.302;2023-07-13T04:30:53;97996.97;;;27.30;68.46
29733;BME280;16643;43.158;25.302;2023-07-13T04:33:19;98005.94;;;27.46;66.24
29733;BME280;16643;43.158;25.302;2023-07-13T04:35:52;98012.50;;;27.70;64.18
29733;BME280;16643;43.158;25.302;2023-07-13T04:38:26;97994.06;;;27.85;59.94
29733;BME280;16643;43.158;25.302;2023-07-13T04:40:55;98022.88;;;28.25;58.05
29733;BME280;16643;43.158;25.302;2023-07-13T04:43:22;98022.16;;;28.48;61.85
29733;BME280;16643;43.158;25.302;2023-07-13T04:45:48;98024.56;;;28.68;57.07
29733;BME280;16643;43.158;25.302;2023-07-13T04:48:13;97980.25;;;28.73;56.82
29733;BME280;16643;43.158;25.302;2023-07-13T04:50:39;98031.06;;;29.15;58.93
29733;BME280;16643;43.158;25.302;2023-07-13T04:53:05;98032.31;;;29.37;56.14
29733;BME280;16643;43.158;25.302;2023-07-13T04:55:30;98023.59;;;29.51;61.47
29733;BME280;16643;43.158;25.302;2023-07-13T04:57:57;98014.38;;;29.70;62.73
29733;BME280;16643;43.158;25.302;2023-07-13T05:00:24;98025.44;;;30.00;63.07
29733;BME280;16643;43.158;25.302;2023-07-13T05:02:50;98030.44;;;30.11;58.53
29733;BME280;16643;43.158;25.302;2023-07-13T05:05:15;98016.34;;;30.17;60.51
29733;BME280;16643;43.158;25.302;2023-07-13T05:07:41;98035.03;;;30.41;61.54
29733;BME280;16643;43.158;25.302;2023-07-13T05:10:07;97994.16;;;30.31;56.80
29733;BME280;16643;43.158;25.302;2023-07-13T05:12:33;98034.59;;;30.77;58.79
29733;BME280;16643;43.158;25.302;2023-07-13T05:14:59;98001.22;;;30.71;60.67
29733;BME280;16643;43.158;25.302;2023-07-13T05:17:26;98020.41;;;30.91;62.91
29733;BME280;16643;43.158;25.302;2023-07-13T05:19:52;98034.91;;;31.04;60.45
29733;BME280;16643;43.158;25.302;2023-07-13T05:22:17;98034.09;;;31.12;62.09
29733;BME280;16643;43.158;25.302;2023-07-13T05:24:43;98038.63;;;31.12;59.09
29733;BME280;16643;43.158;25.302;2023-07-13T05:27:08;98025.38;;;31.10;59.25
29733;BME280;16643;43.158;25.302;2023-07-13T05:29:34;98040.31;;;31.35;60.89
29733;BME280;16643;43.158;25.302;2023-07-13T05:32:00;98017.47;;;31.31;57.85
29733;BME280;16643;43.158;25.302;2023-07-13T05:34:26;98025.47;;;31.39;58.14
29733;BME280;16643;43.158;25.302;2023-07-13T05:36:52;98051.00;;;31.66;59.98
29733;BME280;16643;43.158;25.302;2023-07-13T05:39:18;98036.63;;;31.51;57.66
29733;BME280;16643;43.158;25.302;2023-07-13T05:41:44;98034.13;;;31.72;57.62
29733;BME280;16643;43.158;25.302;2023-07-13T05:44:10;98053.13;;;32.08;52.69
29733;BME280;16643;43.158;25.302;2023-07-13T05:46:35;98028.25;;;31.92;56.69
29733;BME280;16643;43.158;25.302;2023-07-13T05:49:01;98062.72;;;32.11;53.35
29733;BME280;16643;43.158;25.302;2023-07-13T05:51:28;98061.19;;;32.31;54.08
29733;BME280;16643;43.158;25.302;2023-07-13T05:53:56;98034.41;;;32.15;52.15
29733;BME280;16643;43.158;25.302;2023-07-13T05:56:22;98064.72;;;32.46;53.74
29733;BME280;16643;43.158;25.302;2023-07-13T05:58:49;98038.69;;;32.54;54.04
29733;BME280;16643;43.158;25.302;2023-07-13T06:01:16;98039.34;;;32.56;53.17
29733;BME280;16643;43.158;25.302;2023-07-13T06:03:42;98054.13;;;32.74;51.83
29733;BME280;16643;43.158;25.302;2023-07-13T06:06:09;98056.91;;;32.96;52.65
29733;BME280;16643;43.158;25.302;2023-07-13T06:08:35;98065.75;;;33.26;52.48
29733;BME280;16643;43.158;25.302;2023-07-13T06:11:12;98051.13;;;33.20;51.22
29733;BME280;16643;43.158;25.302;2023-07-13T06:13:39;98055.88;;;33.33;51.26
29733;BME280;16643;43.158;25.302;2023-07-13T06:16:04;97995.66;;;33.26;47.85
29733;BME280;16643;43.158;25.302;2023-07-13T06:18:32;98067.44;;;33.91;48.41
29733;BME280;16643;43.158;25.302;2023-07-13T06:20:57;98000.41;;;33.45;50.06
29733;BME280;16643;43.158;25.302;2023-07-13T06:23:24;98080.25;;;33.82;48.43
29733;BME280;16643;43.158;25.302;2023-07-13T06:25:50;98079.72;;;33.93;49.28
29733;BME280;16643;43.158;25.302;2023-07-13T06:28:15;98080.56;;;33.94;49.06
29733;BME280;16643;43.158;25.302;2023-07-13T06:30:41;98062.81;;;33.63;46.27
29733;BME280;16643;43.158;25.302;2023-07-13T06:33:09;98075.41;;;33.77;47.00
29733;BME280;16643;43.158;25.302;2023-07-13T06:35:35;98082.75;;;34.11;48.22
29733;BME280;16643;43.158;25.302;2023-07-13T06:38:01;98086.13;;;34.41;48.10
29733;BME280;16643;43.158;25.302;2023-07-13T06:40:27;98047.03;;;34.37;44.53
29733;BME280;16643;43.158;25.302;2023-07-13T06:42:54;98082.00;;;34.80;44.00
29733;BME280;16643;43.158;25.302;2023-07-13T06:45:20;98084.59;;;35.01;45.75
29733;BME280;16643;43.158;25.302;2023-07-13T06:47:45;98069.44;;;35.07;42.94
29733;BME280;16643;43.158;25.302;2023-07-13T06:50:11;98071.94;;;35.08;39.94
29733;BME280;16643;43.158;25.302;2023-07-13T06:52:36;98081.00;;;34.87;37.34
29733;BME280;16643;43.158;25.302;2023-07-13T06:55:02;98079.16;;;34.94;37.25
29733;BME280;16643;43.158;25.302;2023-07-13T06:57:28;98092.69;;;35.01;38.40
29733;BME280;16643;43.158;25.302;2023-07-13T06:59:53;98080.91;;;35.15;38.19
29733;BME280;16643;43.158;25.302;2023-07-13T07:02:19;98082.75;;;35.08;36.83
29733;BME280;16643;43.158;25.302;2023-07-13T07:04:45;98072.09;;;35.00;37.68
29733;BME280;16643;43.158;25.302;2023-07-13T07:07:10;98055.22;;;34.85;37.18
29733;BME280;16643;43.158;25.302;2023-07-13T07:09:36;98081.34;;;34.78;36.45
29733;BME280;16643;43.158;25.302;2023-07-13T07:12:02;98084.53;;;34.88;37.61
29733;BME280;16643;43.158;25.302;2023-07-13T07:14:30;98091.25;;;34.99;36.98
29733;BME280;16643;43.158;25.302;2023-07-13T07:16:56;98089.97;;;34.94;37.75
29733;BME280;16643;43.158;25.302;2023-07-13T07:19:24;98081.81;;;34.88;36.23
29733;BME280;16643;43.158;25.302;2023-07-13T07:21:49;98093.44;;;34.82;34.92
29733;BME280;16643;43.158;25.302;2023-07-13T07:24:15;98096.81;;;34.56;36.91
29733;BME280;16643;43.158;25.302;2023-07-13T07:26:41;98097.13;;;34.74;37.42
29733;BME280;16643;43.158;25.302;2023-07-13T07:29:06;98077.31;;;34.60;36.70
29733;BME280;16643;43.158;25.302;2023-07-13T07:31:32;98083.22;;;34.77;38.27
29733;BME280;16643;43.158;25.302;2023-07-13T07:33:58;98071.53;;;34.70;36.56
29733;BME280;16643;43.158;25.302;2023-07-13T07:36:23;98078.06;;;34.82;36.06
29733;BME280;16643;43.158;25.302;2023-07-13T07:38:49;98059.22;;;34.61;36.07
29733;BME280;16643;43.158;25.302;2023-07-13T07:41:15;98046.56;;;34.68;37.54
29733;BME280;16643;43.158;25.302;2023-07-13T07:43:40;98060.38;;;34.45;37.19
29733;BME280;16643;43.158;25.302;2023-07-13T07:46:06;98051.94;;;34.62;38.64
29733;BME280;16643;43.158;25.302;2023-07-13T07:48:32;98062.00;;;34.74;38.14
29733;BME280;16643;43.158;25.302;2023-07-13T07:50:58;98081.16;;;34.79;37.09
29733;BME280;16643;43.158;25.302;2023-07-13T07:53:24;98089.00;;;35.15;38.46
29733;BME280;16643;43.158;25.302;2023-07-13T07:55:49;98086.81;;;35.39;36.83
29733;BME280;16643;43.158;25.302;2023-07-13T07:58:17;98023.88;;;35.04;36.21
29733;BME280;16643;43.158;25.302;2023-07-13T08:00:43;98073.72;;;35.42;36.06
29733;BME280;16643;43.158;25.302;2023-07-13T08:03:09;98087.47;;;35.41;36.73
29733;BME280;16643;43.158;25.302;2023-07-13T08:05:36;98030.97;;;35.18;36.40
29733;BME280;16643;43.158;25.302;2023-07-13T08:08:02;98058.53;;;35.41;38.11
29733;BME280;16643;43.158;25.302;2023-07-13T08:10:28;98058.13;;;35.57;38.25
29733;BME280;16643;43.158;25.302;2023-07-13T08:12:54;98085.88;;;35.99;38.92
29733;BME280;16643;43.158;25.302;2023-07-13T08:15:19;98079.00;;;36.10;36.77
29733;BME280;16643;43.158;25.302;2023-07-13T08:17:47;98079.84;;;36.10;37.38
29733;BME280;16643;43.158;25.302;2023-07-13T08:20:13;98084.19;;;36.18;36.79
29733;BME280;16643;43.158;25.302;2023-07-13T08:22:39;98062.34;;;36.26;37.71
29733;BME280;16643;43.158;25.302;2023-07-13T08:25:05;98076.09;;;36.31;38.09
29733;BME280;16643;43.158;25.302;2023-07-13T08:27:31;98084.19;;;36.51;37.57
29733;BME280;16643;43.158;25.302;2023-07-13T08:29:56;98063.56;;;36.43;36.83
29733;BME280;16643;43.158;25.302;2023-07-13T08:32:23;98081.47;;;36.51;35.68
29733;BME280;16643;43.158;25.302;2023-07-13T08:34:49;98072.47;;;36.70;36.81
29733;BME280;16643;43.158;25.302;2023-07-13T08:37:15;98076.81;;;36.91;36.32
29733;BME280;16643;43.158;25.302;2023-07-13T08:39:42;98075.97;;;36.84;35.88
29733;BME280;16643;43.158;25.302;2023-07-13T08:47:33;98030.13;;;37.14;37.21
29733;BME280;16643;43.158;25.302;2023-07-13T08:50:02;98057.97;;;37.40;35.81
29733;BME280;16643;43.158;25.302;2023-07-13T08:52:47;98036.00;;;37.49;35.06
29733;BME280;16643;43.158;25.302;2023-07-13T08:55:20;98051.84;;;37.52;34.74
29733;BME280;16643;43.158;25.302;2023-07-13T08:57:53;98025.94;;;37.56;33.63
29733;BME280;16643;43.158;25.302;2023-07-13T09:00:44;98065.09;;;37.98;34.55
29733;BME280;16643;43.158;25.302;2023-07-13T09:03:20;98069.63;;;38.04;35.32
29733;BME280;16643;43.158;25.302;2023-07-13T09:05:51;98062.75;;;38.08;34.39
29733;BME280;16643;43.158;25.302;2023-07-13T09:08:30;98047.69;;;38.05;35.25
29733;BME280;16643;43.158;25.302;2023-07-13T09:16:39;98041.09;;;38.20;34.13
29733;BME280;16643;43.158;25.302;2023-07-13T09:19:11;98054.91;;;38.18;30.41
29733;BME280;16643;43.158;25.302;2023-07-13T09:21:41;98068.53;;;38.36;32.08
29733;BME280;16643;43.158;25.302;2023-07-13T09:24:34;98059.38;;;38.31;29.22
29733;BME280;16643;43.158;25.302;2023-07-13T09:27:48;98051.19;;;38.37;30.59
29733;BME280;16643;43.158;25.302;2023-07-13T09:29:58;98057.03;;;38.59;32.30
29733;BME280;16643;43.158;25.302;2023-07-13T09:32:27;98043.34;;;38.66;29.24
29733;BME280;16643;43.158;25.302;2023-07-13T09:34:54;98056.41;;;38.94;32.41
29733;BME280;16643;43.158;25.302;2023-07-13T09:37:22;98035.47;;;38.76;29.00
29733;BME280;16643;43.158;25.302;2023-07-13T09:39:49;98065.09;;;38.84;29.26
29733;BME280;16643;43.158;25.302;2023-07-13T09:42:19;98062.41;;;39.02;31.81
29733;BME280;16643;43.158;25.302;2023-07-13T09:44:56;98048.09;;;38.89;30.92
29733;BME280;16643;43.158;25.302;2023-07-13T09:47:25;98063.69;;;39.00;28.78
29733;BME280;16643;43.158;25.302;2023-07-13T09:50:00;98065.03;;;38.91;30.97
29733;BME280;16643;43.158;25.302;2023-07-13T09:52:27;98033.75;;;38.63;32.30
29733;BME280;16643;43.158;25.302;2023-07-13T09:55:04;98032.31;;;38.79;29.20
29733;BME280;16643;43.158;25.302;2023-07-13T09:57:30;98053.38;;;38.83;30.91
29733;BME280;16643;43.158;25.302;2023-07-13T09:59:56;98052.53;;;38.83;28.44
29733;BME280;16643;43.158;25.302;2023-07-13T10:02:32;98051.34;;;38.97;28.70
29733;BME280;16643;43.158;25.302;2023-07-13T10:05:10;98056.78;;;39.15;26.39
29733;BME280;16643;43.158;25.302;2023-07-13T10:07:44;98021.03;;;38.94;28.14
29733;BME280;16643;43.158;25.302;2023-07-13T10:10:15;97977.75;;;38.74;28.04
29733;BME280;16643;43.158;25.302;2023-07-13T10:12:41;98010.44;;;38.85;30.08
29733;BME280;16643;43.158;25.302;2023-07-13T10:15:15;98049.06;;;39.12;27.75
29733;BME280;16643;43.158;25.302;2023-07-13T10:17:42;98034.13;;;39.03;28.97
29733;BME280;16643;43.158;25.302;2023-07-13T10:20:09;98023.97;;;39.10;28.13
29733;BME280;16643;43.158;25.302;2023-07-13T10:22:59;98035.31;;;38.89;27.60
29733;BME280;16643;43.158;25.302;2023-07-13T10:25:31;98027.25;;;39.01;27.88
29733;BME280;16643;43.158;25.302;2023-07-13T10:28:20;98008.25;;;39.12;29.29
29733;BME280;16643;43.158;25.302;2023-07-13T10:30:49;98030.31;;;39.34;31.24
29733;BME280;16643;43.158;25.302;2023-07-13T10:33:19;98018.34;;;39.24;29.65
29733;BME280;16643;43.158;25.302;2023-07-13T10:35:47;98019.59;;;39.39;30.97
29733;BME280;16643;43.158;25.302;2023-07-13T10:38:23;98028.88;;;39.50;29.50
29733;BME280;16643;43.158;25.302;2023-07-13T10:41:01;98036.25;;;39.61;29.12
29733;BME280;16643;43.158;25.302;2023-07-13T10:43:42;98040.91;;;39.42;28.55
29733;BME280;16643;43.158;25.302;2023-07-13T10:46:13;98027.19;;;39.19;30.70
29733;BME280;16643;43.158;25.302;2023-07-13T10:48:42;98038.84;;;39.08;28.77
29733;BME280;16643;43.158;25.302;2023-07-13T10:51:10;98020.75;;;39.02;29.39
29733;BME280;16643;43.158;25.302;2023-07-13T10:53:47;98040.59;;;39.32;29.52
29733;BME280;16643;43.158;25.302;2023-07-13T10:56:22;98039.16;;;39.48;30.54
29733;BME280;16643;43.158;25.302;2023-07-13T10:59:01;98037.72;;;39.45;29.82
29733;BME280;16643;43.158;25.302;2023-07-13T11:01:40;98032.38;;;39.39;28.59
29733;BME280;16643;43.158;25.302;2023-07-13T11:04:12;98007.78;;;39.15;26.57
29733;BME280;16643;43.158;25.302;2023-07-13T11:06:40;98018.22;;;39.30;28.60
29733;BME280;16643;43.158;25.302;2023-07-13T11:09:35;98022.84;;;39.30;27.89
29733;BME280;16643;43.158;25.302;2023-07-13T11:12:27;98001.69;;;39.02;29.02
29733;BME280;16643;43.158;25.302;2023-07-13T11:17:37;98013.38;;;39.50;28.39
29733;BME280;16643;43.158;25.302;2023-07-13T11:25:36;98010.00;;;40.02;27.55
29733;BME280;16643;43.158;25.302;2023-07-13T11:28:15;98017.09;;;39.91;28.17
29733;BME280;16643;43.158;25.302;2023-07-13T11:30:46;97965.41;;;39.61;28.48
29733;BME280;16643;43.158;25.302;2023-07-13T11:36:12;97994.22;;;39.80;28.33
29733;BME280;16643;43.158;25.302;2023-07-13T11:38:43;97994.00;;;39.94;27.75
29733;BME280;16643;43.158;25.302;2023-07-13T11:41:20;97990.91;;;40.02;28.87
29733;BME280;16643;43.158;25.302;2023-07-13T11:43:49;97989.03;;;40.14;27.97
29733;BME280;16643;43.158;25.302;2023-07-13T11:46:24;97988.97;;;39.55;27.03
29733;BME280;16643;43.158;25.302;2023-07-13T11:48:51;97978.09;;;38.96;28.28
29733;BME280;16643;43.158;25.302;2023-07-13T11:53:48;97965.44;;;39.31;29.22
29733;BME280;16643;43.158;25.302;2023-07-13T11:56:14;97967.06;;;39.50;28.67
29733;BME280;16643;43.158;25.302;2023-07-13T11:58:40;97982.09;;;39.65;28.35
29733;BME280;16643;43.158;25.302;2023-07-13T12:01:18;97966.59;;;39.77;30.22
29733;BME280;16643;43.158;25.302;2023-07-13T12:03:45;97946.97;;;39.86;28.00
29733;BME280;16643;43.158;25.302;2023-07-13T12:06:30;97955.59;;;39.72;27.77
29733;BME280;16643;43.158;25.302;2023-07-13T12:08:59;97949.38;;;39.41;28.80
29733;BME280;16643;43.158;25.302;2023-07-13T12:11:36;97928.75;;;39.34;28.58
29733;BME280;16643;43.158;25.302;2023-07-13T12:14:03;97923.13;;;39.70;28.93
29733;BME280;16643;43.158;25.302;2023-07-13T12:16:30;97946.63;;;39.95;27.75
29733;BME280;16643;43.158;25.302;2023-07-13T12:19:02;97919.34;;;39.60;27.53
29733;BME280;16643;43.158;25.302;2023-07-13T12:21:34;97930.97;;;39.90;30.49
29733;BME280;16643;43.158;25.302;2023-07-13T12:24:02;97934.75;;;39.89;29.40
29733;BME280;16643;43.158;25.302;2023-07-13T12:26:30;97924.06;;;39.76;29.03
29733;BME280;16643;43.158;25.302;2023-07-13T12:28:59;97911.81;;;39.32;28.26
29733;BME280;16643;43.158;25.302;2023-07-13T12:31:39;97918.50;;;39.47;29.78
29733;BME280;16643;43.158;25.302;2023-07-13T12:34:14;97918.50;;;39.47;29.89
29733;BME280;16643;43.158;25.302;2023-07-13T12:36:46;97905.34;;;39.44;27.69
29733;BME280;16643;43.158;25.302;2023-07-13T12:41:52;97888.75;;;39.22;29.30
29733;BME280;16643;43.158;25.302;2023-07-13T12:44:27;97894.16;;;39.11;30.10
29733;BME280;16643;43.158;25.302;2023-07-13T12:47:02;97877.25;;;39.32;29.79
29733;BME280;16643;43.158;25.302;2023-07-13T12:49:31;97895.53;;;39.43;29.19
29733;BME280;16643;43.158;25.302;2023-07-13T12:52:03;97873.16;;;39.41;30.19
29733;BME280;16643;43.158;25.302;2023-07-13T12:54:30;97900.38;;;39.41;28.50
29733;BME280;16643;43.158;25.302;2023-07-13T12:56:58;97870.28;;;39.13;27.51
29733;BME280;16643;43.158;25.302;2023-07-13T12:59:29;97861.13;;;39.07;29.10
29733;BME280;16643;43.158;25.302;2023-07-13T13:01:58;97876.63;;;39.07;28.36
29733;BME280;16643;43.158;25.302;2023-07-13T13:04:25;97876.41;;;39.08;29.81
29733;BME280;16643;43.158;25.302;2023-07-13T13:07:01;97902.78;;;39.49;30.53
29733;BME280;16643;43.158;25.302;2023-07-13T13:09:27;97891.06;;;39.61;29.12
29733;BME280;16643;43.158;25.302;2023-07-13T13:11:53;97866.38;;;39.32;29.35
29733;BME280;16643;43.158;25.302;2023-07-13T13:14:18;97863.66;;;39.32;30.34
29733;BME280;16643;43.158;25.302;2023-07-13T13:16:49;97880.16;;;39.72;29.18
29733;BME280;16643;43.158;25.302;2023-07-13T13:19:27;97871.97;;;39.72;29.04
29733;BME280;16643;43.158;25.302;2023-07-13T13:21:55;97857.03;;;39.75;29.09
29733;BME280;16643;43.158;25.302;2023-07-13T13:24:24;97831.34;;;39.71;26.57
29733;BME280;16643;43.158;25.302;2023-07-13T13:26:51;97862.38;;;39.81;27.39